sensor_id;sensor_type;location;lat;lon;timestamp;temperature;humidity
3408;DHT22;1717;50.240;8.406;2022-12-29T00:01:41;8.20;99.90
3408;DHT22;1717;50.240;8.406;2022-12-29T00:04:12;8.20;99.90
3408;DHT22;1717;50.240;8.406;2022-12-29T00:06:39;8.40;99.90
3408;DHT22;1717;50.240;8.406;2022-12-29T00:09:06;8.20;99.90
3408;DHT22;1717;50.240;8.406;2022-12-29T00:11:33;8.20;99.90
3408;DHT22;1717;50.240;8.406;2022-12-29T00:14:01;8.20;99.90
3408;DHT22;1717;50.240;8.406;2022-12-29T00:16:45;8.20;99.90
3408;DHT22;1717;50.240;8.406;2022-12-29T00:19:12;8.20;99.90
3408;DHT22;1717;50.240;8.406;2022-12-29T00:21:53;8.20;99.90
3408;DHT22;1717;50.240;8.406;2022-12-29T00:24:37;8.30;99.90
3408;DHT22;1717;50.240;8.406;2022-12-29T00:27:22;8.30;99.90
3408;DHT22;1717;50.240;8.406;2022-12-29T00:30:15;8.30;99.90
3408;DHT22;1717;50.240;8.406;2022-12-29T00:32:59;8.30;99.90
3408;DHT22;1717;50.240;8.406;2022-12-29T00:35:47;8.40;99.90
3408;DHT22;1717;50.240;8.406;2022-12-29T00:38:17;8.40;99.90
3408;DHT22;1717;50.240;8.406;2022-12-29T00:41:02;8.40;99.90
3408;DHT22;1717;50.240;8.406;2022-12-29T00:43:46;8.40;99.90
3408;DHT22;1717;50.240;8.406;2022-12-29T00:46:33;8.40;99.90
3408;DHT22;1717;50.240;8.406;2022-12-29T00:49:01;8.40;99.90
3408;DHT22;1717;50.240;8.406;2022-12-29T00:51:47;8.40;99.90
3408;DHT22;1717;50.240;8.406;2022-12-29T00:54:14;8.50;99.90
3408;DHT22;1717;50.240;8.406;2022-12-29T00:56:41;8.40;99.90
3408;DHT22;1717;50.240;8.406;2022-12-29T00:59:10;8.50;99.90
3408;DHT22;1717;50.240;8.406;2022-12-29T01:01:38;8.50;99.90
3408;DHT22;1717;50.240;8.406;2022-12-29T01:04:06;8.50;99.90
3408;DHT22;1717;50.240;8.406;2022-12-29T01:06:34;8.60;99.90
3408;DHT22;1717;50.240;8.406;2022-12-29T01:09:02;8.60;99.90
3408;DHT22;1717;50.240;8.406;2022-12-29T01:11:46;8.60;99.90
3408;DHT22;1717;50.240;8.406;2022-12-29T01:14:13;8.60;99.90
3408;DHT22;1717;50.240;8.406;2022-12-29T01:16:41;8.60;99.90
3408;DHT22;1717;50.240;8.406;2022-12-29T01:19:08;8.60;99.90
3408;DHT22;1717;50.240;8.406;2022-12-29T01:21:35;8.60;99.90
3408;DHT22;1717;50.240;8.406;2022-12-29T01:24:02;9.00;99.90
3408;DHT22;1717;50.240;8.406;2022-12-29T01:26:29;8.70;99.90
3408;DHT22;1717;50.240;8.406;2022-12-29T01:28:56;8.60;99.90
3408;DHT22;1717;50.240;8.406;2022-12-29T01:31:22;8.70;99.90
3408;DHT22;1717;50.240;8.406;2022-12-29T01:33:51;8.70;99.90
3408;DHT22;1717;50.240;8.406;2022-12-29T01:36:18;8.60;99.90
3408;DHT22;1717;50.240;8.406;2022-12-29T01:38:45;8.60;99.90
3408;DHT22;1717;50.240;8.406;2022-12-29T01:41:14;8.80;99.90
3408;DHT22;1717;50.240;8.406;2022-12-29T01:43:44;8.60;99.90
3408;DHT22;1717;50.240;8.406;2022-12-29T01:46:22;8.70;99.90
3408;DHT22;1717;50.240;8.406;2022-12-29T01:48:55;8.60;99.90
3408;DHT22;1717;50.240;8.406;2022-12-29T01:51:25;8.60;99.90
3408;DHT22;1717;50.240;8.406;2022-12-29T01:53:53;8.60;99.90
3408;DHT22;1717;50.240;8.406;2022-12-29T01:56:22;8.70;99.90
3408;DHT22;1717;50.240;8.406;2022-12-29T01:58:56;8.70;99.90
3408;DHT22;1717;50.240;8.406;2022-12-29T02:01:25;8.70;99.90
3408;DHT22;1717;50.240;8.406;2022-12-29T02:03:53;8.70;99.90
3408;DHT22;1717;50.240;8.406;2022-12-29T02:06:22;8.70;99.90
3408;DHT22;1717;50.240;8.406;2022-12-29T02:08:50;8.70;99.90
3408;DHT22;1717;50.240;8.406;2022-12-29T02:11:19;8.80;99.90
3408;DHT22;1717;50.240;8.406;2022-12-29T02:13:47;8.80;99.90
3408;DHT22;1717;50.240;8.406;2022-12-29T02:16:23;8.70;99.90
3408;DHT22;1717;50.240;8.406;2022-12-29T02:19:05;8.80;99.90
3408;DHT22;1717;50.240;8.406;2022-12-29T02:21:56;8.80;99.90
3408;DHT22;1717;50.240;8.406;2022-12-29T02:24:59;8.70;99.90
3408;DHT22;1717;50.240;8.406;2022-12-29T02:27:46;8.80;99.90
3408;DHT22;1717;50.240;8.406;2022-12-29T02:30:38;8.70;99.90
3408;DHT22;1717;50.240;8.406;2022-12-29T02:33:15;8.70;99.90
3408;DHT22;1717;50.240;8.406;2022-12-29T02:35:52;8.70;99.90
3408;DHT22;1717;50.240;8.406;2022-12-29T02:38:27;8.70;99.90
3408;DHT22;1717;50.240;8.406;2022-12-29T02:41:02;8.80;99.90
3408;DHT22;1717;50.240;8.406;2022-12-29T02:43:37;8.80;99.90
3408;DHT22;1717;50.240;8.406;2022-12-29T02:46:12;8.80;99.90
3408;DHT22;1717;50.240;8.406;2022-12-29T02:48:48;8.80;99.90
3408;DHT22;1717;50.240;8.406;2022-12-29T02:51:21;8.80;99.90
3408;DHT22;1717;50.240;8.406;2022-12-29T02:53:50;8.70;99.90
3408;DHT22;1717;50.240;8.406;2022-12-29T02:56:36;8.70;99.90
3408;DHT22;1717;50.240;8.406;2022-12-29T02:59:03;8.70;99.90
3408;DHT22;1717;50.240;8.406;2022-12-29T03:01:39;8.70;99.90
3408;DHT22;1717;50.240;8.406;2022-12-29T03:04:31;8.70;99.90
3408;DHT22;1717;50.240;8.406;2022-12-29T03:07:04;8.70;99.90
3408;DHT22;1717;50.240;8.406;2022-12-29T03:09:38;8.70;99.90
3408;DHT22;1717;50.240;8.406;2022-12-29T03:12:17;8.80;99.90
3408;DHT22;1717;50.240;8.406;2022-12-29T03:14:55;8.70;99.90
3408;DHT22;1717;50.240;8.406;2022-12-29T03:17:50;8.80;99.90
3408;DHT22;1717;50.240;8.406;2022-12-29T03:20:22;8.80;99.90
3408;DHT22;1717;50.240;8.406;2022-12-29T03:22:51;8.80;99.90
3408;DHT22;1717;50.240;8.406;2022-12-29T03:25:23;8.80;99.90
3408;DHT22;1717;50.240;8.406;2022-12-29T03:27:53;8.80;99.90
3408;DHT22;1717;50.240;8.406;2022-12-29T03:30:22;8.80;99.90
3408;DHT22;1717;50.240;8.406;2022-12-29T03:32:53;8.80;99.90
3408;DHT22;1717;50.240;8.406;2022-12-29T03:35:22;8.80;99.90
3408;DHT22;1717;50.240;8.406;2022-12-29T03:37:55;8.80;99.90
3408;DHT22;1717;50.240;8.406;2022-12-29T03:40:25;8.80;99.90
3408;DHT22;1717;50.240;8.406;2022-12-29T03:42:53;8.80;99.90
3408;DHT22;1717;50.240;8.406;2022-12-29T03:45:20;8.80;99.90
3408;DHT22;1717;50.240;8.406;2022-12-29T03:47:47;8.80;99.90
3408;DHT22;1717;50.240;8.406;2022-12-29T03:50:16;8.80;99.90
3408;DHT22;1717;50.240;8.406;2022-12-29T03:52:42;8.90;99.90
3408;DHT22;1717;50.240;8.406;2022-12-29T03:55:09;8.90;99.90
3408;DHT22;1717;50.240;8.406;2022-12-29T03:57:36;8.90;99.90
3408;DHT22;1717;50.240;8.406;2022-12-29T04:00:04;8.80;99.90
3408;DHT22;1717;50.240;8.406;2022-12-29T04:02:31;8.90;99.90
3408;DHT22;1717;50.240;8.406;2022-12-29T04:04:58;8.90;99.90
3408;DHT22;1717;50.240;8.406;2022-12-29T04:07:26;8.90;99.90
3408;DHT22;1717;50.240;8.406;2022-12-29T04:09:53;8.80;99.90
3408;DHT22;1717;50.240;8.406;2022-12-29T04:12:20;8.90;99.90
3408;DHT22;1717;50.240;8.406;2022-12-29T04:14:46;8.90;99.90
3408;DHT22;1717;50.240;8.406;2022-12-29T04:17:13;8.90;99.90
3408;DHT22;1717;50.240;8.406;2022-12-29T04:19:40;8.90;99.90
3408;DHT22;1717;50.240;8.406;2022-12-29T04:22:07;8.80;99.90
3408;DHT22;1717;50.240;8.406;2022-12-29T04:24:34;8.90;99.90
3408;DHT22;1717;50.240;8.406;2022-12-29T04:27:01;8.80;99.90
3408;DHT22;1717;50.240;8.406;2022-12-29T04:29:28;8.90;99.90
3408;DHT22;1717;50.240;8.406;2022-12-29T04:31:55;8.90;99.90
3408;DHT22;1717;50.240;8.406;2022-12-29T04:34:22;8.80;99.90
3408;DHT22;1717;50.240;8.406;2022-12-29T04:36:49;8.90;99.90
3408;DHT22;1717;50.240;8.406;2022-12-29T04:39:15;8.80;99.90
3408;DHT22;1717;50.240;8.406;2022-12-29T04:41:43;8.80;99.90
3408;DHT22;1717;50.240;8.406;2022-12-29T04:44:10;8.80;99.90
3408;DHT22;1717;50.240;8.406;2022-12-29T04:46:37;8.80;99.90
3408;DHT22;1717;50.240;8.406;2022-12-29T04:49:04;8.80;99.90
3408;DHT22;1717;50.240;8.406;2022-12-29T04:51:34;8.90;99.90
3408;DHT22;1717;50.240;8.406;2022-12-29T04:54:01;8.90;99.90
3408;DHT22;1717;50.240;8.406;2022-12-29T04:56:27;8.90;99.90
3408;DHT22;1717;50.240;8.406;2022-12-29T04:58:56;8.90;99.90
3408;DHT22;1717;50.240;8.406;2022-12-29T05:01:23;8.90;99.90
3408;DHT22;1717;50.240;8.406;2022-12-29T05:03:50;8.90;99.90
3408;DHT22;1717;50.240;8.406;2022-12-29T05:06:17;8.90;99.90
3408;DHT22;1717;50.240;8.406;2022-12-29T05:08:44;9.00;99.90
3408;DHT22;1717;50.240;8.406;2022-12-29T05:11:11;8.90;99.90
3408;DHT22;1717;50.240;8.406;2022-12-29T05:13:38;8.90;99.90
3408;DHT22;1717;50.240;8.406;2022-12-29T05:16:06;8.90;99.90
3408;DHT22;1717;50.240;8.406;2022-12-29T05:18:33;9.00;99.90
3408;DHT22;1717;50.240;8.406;2022-12-29T05:21:00;9.00;99.90
3408;DHT22;1717;50.240;8.406;2022-12-29T05:23:26;8.90;99.90
3408;DHT22;1717;50.240;8.406;2022-12-29T05:25:53;9.00;99.90
3408;DHT22;1717;50.240;8.406;2022-12-29T05:28:20;8.90;99.90
3408;DHT22;1717;50.240;8.406;2022-12-29T05:30:48;8.90;99.90
3408;DHT22;1717;50.240;8.406;2022-12-29T05:33:16;8.90;99.90
3408;DHT22;1717;50.240;8.406;2022-12-29T05:35:43;8.90;99.90
3408;DHT22;1717;50.240;8.406;2022-12-29T05:38:10;9.00;99.90
3408;DHT22;1717;50.240;8.406;2022-12-29T05:40:37;8.90;99.90
3408;DHT22;1717;50.240;8.406;2022-12-29T05:43:04;9.00;99.90
3408;DHT22;1717;50.240;8.406;2022-12-29T05:45:31;8.90;99.90
3408;DHT22;1717;50.240;8.406;2022-12-29T05:47:58;8.90;99.90
3408;DHT22;1717;50.240;8.406;2022-12-29T05:50:26;8.90;99.90
3408;DHT22;1717;50.240;8.406;2022-12-29T05:52:53;8.90;99.90
3408;DHT22;1717;50.240;8.406;2022-12-29T05:55:20;8.90;99.90
3408;DHT22;1717;50.240;8.406;2022-12-29T05:57:47;8.90;99.90
3408;DHT22;1717;50.240;8.406;2022-12-29T06:00:14;8.90;99.90
3408;DHT22;1717;50.240;8.406;2022-12-29T06:02:41;8.90;99.90
3408;DHT22;1717;50.240;8.406;2022-12-29T06:05:08;8.90;99.90
3408;DHT22;1717;50.240;8.406;2022-12-29T06:07:36;8.90;99.90
3408;DHT22;1717;50.240;8.406;2022-12-29T06:10:04;9.00;99.90
3408;DHT22;1717;50.240;8.406;2022-12-29T06:12:31;9.00;99.90
3408;DHT22;1717;50.240;8.406;2022-12-29T06:14:58;9.00;99.90
3408;DHT22;1717;50.240;8.406;2022-12-29T06:17:25;9.00;99.90
3408;DHT22;1717;50.240;8.406;2022-12-29T06:19:51;8.90;99.90
3408;DHT22;1717;50.240;8.406;2022-12-29T06:22:18;9.00;99.90
3408;DHT22;1717;50.240;8.406;2022-12-29T06:24:46;9.00;99.90
3408;DHT22;1717;50.240;8.406;2022-12-29T06:27:13;9.00;99.90
3408;DHT22;1717;50.240;8.406;2022-12-29T06:29:40;9.00;99.90
3408;DHT22;1717;50.240;8.406;2022-12-29T06:32:08;9.00;99.90
3408;DHT22;1717;50.240;8.406;2022-12-29T06:34:35;9.00;99.90
3408;DHT22;1717;50.240;8.406;2022-12-29T06:37:02;9.00;99.90
3408;DHT22;1717;50.240;8.406;2022-12-29T06:39:29;9.00;99.90
3408;DHT22;1717;50.240;8.406;2022-12-29T06:41:57;9.00;99.90
3408;DHT22;1717;50.240;8.406;2022-12-29T06:44:24;9.00;99.90
3408;DHT22;1717;50.240;8.406;2022-12-29T06:46:51;9.00;99.90
3408;DHT22;1717;50.240;8.406;2022-12-29T06:49:18;9.00;99.90
3408;DHT22;1717;50.240;8.406;2022-12-29T06:51:44;9.10;99.90
3408;DHT22;1717;50.240;8.406;2022-12-29T06:54:12;9.00;99.90
3408;DHT22;1717;50.240;8.406;2022-12-29T06:56:39;9.00;99.90
3408;DHT22;1717;50.240;8.406;2022-12-29T06:59:07;9.00;99.90
3408;DHT22;1717;50.240;8.406;2022-12-29T07:01:35;9.00;99.90
3408;DHT22;1717;50.240;8.406;2022-12-29T07:04:02;9.00;99.90
3408;DHT22;1717;50.240;8.406;2022-12-29T07:06:29;9.00;99.90
3408;DHT22;1717;50.240;8.406;2022-12-29T07:08:55;9.00;99.90
3408;DHT22;1717;50.240;8.406;2022-12-29T07:11:23;9.00;99.90
3408;DHT22;1717;50.240;8.406;2022-12-29T07:13:50;9.00;99.90
3408;DHT22;1717;50.240;8.406;2022-12-29T07:16:18;9.00;99.90
3408;DHT22;1717;50.240;8.406;2022-12-29T07:18:45;9.00;99.90
3408;DHT22;1717;50.240;8.406;2022-12-29T07:21:12;9.00;99.90
3408;DHT22;1717;50.240;8.406;2022-12-29T07:23:39;9.00;99.90
3408;DHT22;1717;50.240;8.406;2022-12-29T07:26:08;9.00;99.90
3408;DHT22;1717;50.240;8.406;2022-12-29T07:28:36;9.00;99.90
3408;DHT22;1717;50.240;8.406;2022-12-29T07:31:03;9.00;99.90
3408;DHT22;1717;50.240;8.406;2022-12-29T07:33:32;9.00;99.90
3408;DHT22;1717;50.240;8.406;2022-12-29T07:35:59;9.20;99.90
3408;DHT22;1717;50.240;8.406;2022-12-29T07:38:26;9.00;99.90
3408;DHT22;1717;50.240;8.406;2022-12-29T07:40:56;9.00;99.90
3408;DHT22;1717;50.240;8.406;2022-12-29T07:43:23;9.00;99.90
3408;DHT22;1717;50.240;8.406;2022-12-29T07:45:50;9.00;99.90
3408;DHT22;1717;50.240;8.406;2022-12-29T07:48:17;9.00;99.90
3408;DHT22;1717;50.240;8.406;2022-12-29T07:50:45;9.00;99.90
3408;DHT22;1717;50.240;8.406;2022-12-29T07:53:12;9.00;99.90
3408;DHT22;1717;50.240;8.406;2022-12-29T07:55:38;9.00;99.90
3408;DHT22;1717;50.240;8.406;2022-12-29T07:58:05;9.00;99.90
3408;DHT22;1717;50.240;8.406;2022-12-29T08:00:32;9.00;99.90
3408;DHT22;1717;50.240;8.406;2022-12-29T08:03:00;9.00;99.90
3408;DHT22;1717;50.240;8.406;2022-12-29T08:05:27;8.90;99.90
3408;DHT22;1717;50.240;8.406;2022-12-29T08:07:55;8.90;99.90
3408;DHT22;1717;50.240;8.406;2022-12-29T08:10:22;9.00;99.90
3408;DHT22;1717;50.240;8.406;2022-12-29T08:12:49;8.90;99.90
3408;DHT22;1717;50.240;8.406;2022-12-29T08:15:16;9.00;99.90
3408;DHT22;1717;50.240;8.406;2022-12-29T08:17:43;8.90;99.90
3408;DHT22;1717;50.240;8.406;2022-12-29T08:20:10;8.90;99.90
3408;DHT22;1717;50.240;8.406;2022-12-29T08:22:37;8.90;99.90
3408;DHT22;1717;50.240;8.406;2022-12-29T08:25:06;9.00;99.90
3408;DHT22;1717;50.240;8.406;2022-12-29T08:27:33;9.00;99.90
3408;DHT22;1717;50.240;8.406;2022-12-29T08:30:00;9.00;99.90
3408;DHT22;1717;50.240;8.406;2022-12-29T08:32:27;9.00;99.90
3408;DHT22;1717;50.240;8.406;2022-12-29T08:34:54;9.00;99.90
3408;DHT22;1717;50.240;8.406;2022-12-29T08:37:21;9.00;99.90
3408;DHT22;1717;50.240;8.406;2022-12-29T08:39:48;9.10;99.90
3408;DHT22;1717;50.240;8.406;2022-12-29T08:42:16;9.00;99.90
3408;DHT22;1717;50.240;8.406;2022-12-29T08:44:43;9.00;99.90
3408;DHT22;1717;50.240;8.406;2022-12-29T08:47:10;9.10;99.90
3408;DHT22;1717;50.240;8.406;2022-12-29T08:49:37;9.10;99.90
3408;DHT22;1717;50.240;8.406;2022-12-29T08:52:04;9.10;99.90
3408;DHT22;1717;50.240;8.406;2022-12-29T08:54:31;9.10;99.90
3408;DHT22;1717;50.240;8.406;2022-12-29T08:56:58;9.10;99.90
3408;DHT22;1717;50.240;8.406;2022-12-29T08:59:26;9.10;99.90
3408;DHT22;1717;50.240;8.406;2022-12-29T09:01:53;9.10;99.90
3408;DHT22;1717;50.240;8.406;2022-12-29T09:04:20;9.20;99.90
3408;DHT22;1717;50.240;8.406;2022-12-29T09:06:49;9.10;99.90
3408;DHT22;1717;50.240;8.406;2022-12-29T09:09:16;9.20;99.90
3408;DHT22;1717;50.240;8.406;2022-12-29T09:11:43;9.20;99.90
3408;DHT22;1717;50.240;8.406;2022-12-29T09:14:11;9.20;99.90
3408;DHT22;1717;50.240;8.406;2022-12-29T09:16:39;9.20;99.90
3408;DHT22;1717;50.240;8.406;2022-12-29T09:19:23;9.30;99.90
3408;DHT22;1717;50.240;8.406;2022-12-29T09:21:50;9.20;99.90
3408;DHT22;1717;50.240;8.406;2022-12-29T09:24:17;9.30;99.90
3408;DHT22;1717;50.240;8.406;2022-12-29T09:26:44;9.30;99.90
3408;DHT22;1717;50.240;8.406;2022-12-29T09:29:10;9.20;99.90
3408;DHT22;1717;50.240;8.406;2022-12-29T09:31:39;9.30;99.90
3408;DHT22;1717;50.240;8.406;2022-12-29T09:34:05;9.30;99.90
3408;DHT22;1717;50.240;8.406;2022-12-29T09:36:32;9.30;99.90
3408;DHT22;1717;50.240;8.406;2022-12-29T09:38:59;9.30;99.90
3408;DHT22;1717;50.240;8.406;2022-12-29T09:41:29;9.30;99.90
3408;DHT22;1717;50.240;8.406;2022-12-29T09:44:08;9.30;99.90
3408;DHT22;1717;50.240;8.406;2022-12-29T09:46:42;9.40;99.90
3408;DHT22;1717;50.240;8.406;2022-12-29T09:49:19;9.40;99.90
3408;DHT22;1717;50.240;8.406;2022-12-29T09:51:50;9.40;99.90
3408;DHT22;1717;50.240;8.406;2022-12-29T09:54:38;9.40;99.90
3408;DHT22;1717;50.240;8.406;2022-12-29T09:57:13;9.40;99.90
3408;DHT22;1717;50.240;8.406;2022-12-29T09:59:42;9.40;99.90
3408;DHT22;1717;50.240;8.406;2022-12-29T10:02:29;9.50;99.90
3408;DHT22;1717;50.240;8.406;2022-12-29T10:04:58;9.50;99.90
3408;DHT22;1717;50.240;8.406;2022-12-29T10:07:36;9.50;99.90
3408;DHT22;1717;50.240;8.406;2022-12-29T10:10:19;9.50;99.90
3408;DHT22;1717;50.240;8.406;2022-12-29T10:12:58;9.50;99.90
3408;DHT22;1717;50.240;8.406;2022-12-29T10:15:40;9.50;99.90
3408;DHT22;1717;50.240;8.406;2022-12-29T10:18:20;9.50;99.90
3408;DHT22;1717;50.240;8.406;2022-12-29T10:20:53;9.50;99.90
3408;DHT22;1717;50.240;8.406;2022-12-29T10:23:26;9.70;99.90
3408;DHT22;1717;50.240;8.406;2022-12-29T10:25:55;9.60;99.90
3408;DHT22;1717;50.240;8.406;2022-12-29T10:28:24;9.60;99.90
3408;DHT22;1717;50.240;8.406;2022-12-29T10:30:51;9.60;99.90
3408;DHT22;1717;50.240;8.406;2022-12-29T10:33:22;9.70;99.90
3408;DHT22;1717;50.240;8.406;2022-12-29T10:35:51;9.60;99.90
3408;DHT22;1717;50.240;8.406;2022-12-29T10:38:23;9.60;99.90
3408;DHT22;1717;50.240;8.406;2022-12-29T10:40:54;9.70;99.90
3408;DHT22;1717;50.240;8.406;2022-12-29T10:43:26;9.80;99.90
3408;DHT22;1717;50.240;8.406;2022-12-29T10:45:56;9.80;99.90
3408;DHT22;1717;50.240;8.406;2022-12-29T10:48:28;9.80;99.90
3408;DHT22;1717;50.240;8.406;2022-12-29T10:50:58;9.80;99.90
3408;DHT22;1717;50.240;8.406;2022-12-29T10:53:29;9.80;99.90
3408;DHT22;1717;50.240;8.406;2022-12-29T10:55:59;9.80;99.90
3408;DHT22;1717;50.240;8.406;2022-12-29T10:58:28;9.90;99.90
3408;DHT22;1717;50.240;8.406;2022-12-29T11:00:56;9.80;99.90
3408;DHT22;1717;50.240;8.406;2022-12-29T11:03:54;9.80;99.90
3408;DHT22;1717;50.240;8.406;2022-12-29T11:06:26;9.80;99.90
3408;DHT22;1717;50.240;8.406;2022-12-29T11:08:57;9.90;99.90
3408;DHT22;1717;50.240;8.406;2022-12-29T11:11:26;9.90;99.90
3408;DHT22;1717;50.240;8.406;2022-12-29T11:13:58;9.90;99.90
3408;DHT22;1717;50.240;8.406;2022-12-29T11:16:30;9.90;99.90
3408;DHT22;1717;50.240;8.406;2022-12-29T11:18:59;9.90;99.90
3408;DHT22;1717;50.240;8.406;2022-12-29T11:21:31;9.90;99.90
3408;DHT22;1717;50.240;8.406;2022-12-29T11:24:00;9.90;99.90
3408;DHT22;1717;50.240;8.406;2022-12-29T11:26:27;10.00;99.90
3408;DHT22;1717;50.240;8.406;2022-12-29T11:31:51;10.00;99.90
3408;DHT22;1717;50.240;8.406;2022-12-29T11:34:23;10.00;99.90
3408;DHT22;1717;50.240;8.406;2022-12-29T11:36:52;10.00;99.90
3408;DHT22;1717;50.240;8.406;2022-12-29T11:39:29;10.00;99.90
3408;DHT22;1717;50.240;8.406;2022-12-29T11:41:57;10.00;99.90
3408;DHT22;1717;50.240;8.406;2022-12-29T11:44:25;10.00;99.90
3408;DHT22;1717;50.240;8.406;2022-12-29T11:46:54;10.10;99.90
3408;DHT22;1717;50.240;8.406;2022-12-29T11:49:25;10.10;99.90
3408;DHT22;1717;50.240;8.406;2022-12-29T11:51:53;10.10;99.90
3408;DHT22;1717;50.240;8.406;2022-12-29T11:54:25;10.10;99.90
3408;DHT22;1717;50.240;8.406;2022-12-29T11:56:55;10.10;99.90
3408;DHT22;1717;50.240;8.406;2022-12-29T11:59:37;10.10;99.90
3408;DHT22;1717;50.240;8.406;2022-12-29T12:02:42;10.20;99.90
3408;DHT22;1717;50.240;8.406;2022-12-29T12:05:35;10.20;99.90
3408;DHT22;1717;50.240;8.406;2022-12-29T12:08:09;10.20;99.90
3408;DHT22;1717;50.240;8.406;2022-12-29T12:10:43;10.30;99.90
3408;DHT22;1717;50.240;8.406;2022-12-29T12:13:23;10.30;99.90
3408;DHT22;1717;50.240;8.406;2022-12-29T12:15:56;10.30;99.90
3408;DHT22;1717;50.240;8.406;2022-12-29T12:18:34;10.30;99.90
3408;DHT22;1717;50.240;8.406;2022-12-29T12:21:10;10.30;99.90
3408;DHT22;1717;50.240;8.406;2022-12-29T12:23:46;10.30;99.90
3408;DHT22;1717;50.240;8.406;2022-12-29T12:26:20;10.30;99.90
3408;DHT22;1717;50.240;8.406;2022-12-29T12:28:54;10.30;99.90
3408;DHT22;1717;50.240;8.406;2022-12-29T12:31:37;10.30;99.90
3408;DHT22;1717;50.240;8.406;2022-12-29T12:34:15;10.40;99.90
3408;DHT22;1717;50.240;8.406;2022-12-29T12:39:41;10.40;99.90
3408;DHT22;1717;50.240;8.406;2022-12-29T12:42:23;10.40;99.90
3408;DHT22;1717;50.240;8.406;2022-12-29T12:45:07;10.50;99.90
3408;DHT22;1717;50.240;8.406;2022-12-29T12:47:51;10.50;99.90
3408;DHT22;1717;50.240;8.406;2022-12-29T12:50:30;10.50;99.90
3408;DHT22;1717;50.240;8.406;2022-12-29T12:53:18;10.50;99.90
3408;DHT22;1717;50.240;8.406;2022-12-29T12:56:11;10.50;99.90
3408;DHT22;1717;50.240;8.406;2022-12-29T12:58:51;10.50;99.90
3408;DHT22;1717;50.240;8.406;2022-12-29T13:01:33;10.50;99.90
3408;DHT22;1717;50.240;8.406;2022-12-29T13:07:12;10.50;99.90
3408;DHT22;1717;50.240;8.406;2022-12-29T13:10:15;10.50;99.90
3408;DHT22;1717;50.240;8.406;2022-12-29T13:12:50;10.50;99.90
3408;DHT22;1717;50.240;8.406;2022-12-29T13:15:32;10.50;99.90
3408;DHT22;1717;50.240;8.406;2022-12-29T13:18:10;10.50;99.90
3408;DHT22;1717;50.240;8.406;2022-12-29T13:20:44;10.60;99.90
3408;DHT22;1717;50.240;8.406;2022-12-29T13:23:19;10.60;99.90
3408;DHT22;1717;50.240;8.406;2022-12-29T13:25:56;10.60;99.90
3408;DHT22;1717;50.240;8.406;2022-12-29T13:28:30;10.70;99.90
3408;DHT22;1717;50.240;8.406;2022-12-29T13:31:04;10.70;99.90
3408;DHT22;1717;50.240;8.406;2022-12-29T13:33:39;10.70;99.90
3408;DHT22;1717;50.240;8.406;2022-12-29T13:36:15;10.70;99.90
3408;DHT22;1717;50.240;8.406;2022-12-29T13:38:47;10.70;99.90
3408;DHT22;1717;50.240;8.406;2022-12-29T13:41:29;10.70;99.90
3408;DHT22;1717;50.240;8.406;2022-12-29T13:43:57;10.60;99.90
3408;DHT22;1717;50.240;8.406;2022-12-29T13:46:28;10.70;99.90
3408;DHT22;1717;50.240;8.406;2022-12-29T13:48:59;10.70;99.90
3408;DHT22;1717;50.240;8.406;2022-12-29T13:51:29;10.70;99.90
3408;DHT22;1717;50.240;8.406;2022-12-29T13:54:09;10.60;99.90
3408;DHT22;1717;50.240;8.406;2022-12-29T13:56:42;10.60;99.90
3408;DHT22;1717;50.240;8.406;2022-12-29T13:59:19;10.60;99.90
3408;DHT22;1717;50.240;8.406;2022-12-29T14:01:53;10.50;99.90
3408;DHT22;1717;50.240;8.406;2022-12-29T14:04:23;10.50;99.90
3408;DHT22;1717;50.240;8.406;2022-12-29T14:07:00;10.50;99.90
3408;DHT22;1717;50.240;8.406;2022-12-29T14:09:41;10.50;99.90
3408;DHT22;1717;50.240;8.406;2022-12-29T14:12:21;10.50;99.90
3408;DHT22;1717;50.240;8.406;2022-12-29T14:14:52;10.50;99.90
3408;DHT22;1717;50.240;8.406;2022-12-29T14:17:20;10.50;99.90
3408;DHT22;1717;50.240;8.406;2022-12-29T14:19:52;10.50;99.90
3408;DHT22;1717;50.240;8.406;2022-12-29T14:22:23;10.50;99.90
3408;DHT22;1717;50.240;8.406;2022-12-29T14:24:51;10.50;99.90
3408;DHT22;1717;50.240;8.406;2022-12-29T14:27:53;10.50;99.90
3408;DHT22;1717;50.240;8.406;2022-12-29T14:30:47;10.50;99.90
3408;DHT22;1717;50.240;8.406;2022-12-29T14:33:15;10.50;99.90
3408;DHT22;1717;50.240;8.406;2022-12-29T14:35:45;10.50;99.90
3408;DHT22;1717;50.240;8.406;2022-12-29T14:38:21;10.50;99.90
3408;DHT22;1717;50.240;8.406;2022-12-29T14:40:49;10.50;99.90
3408;DHT22;1717;50.240;8.406;2022-12-29T14:43:24;10.50;99.90
3408;DHT22;1717;50.240;8.406;2022-12-29T14:45:55;10.50;99.90
3408;DHT22;1717;50.240;8.406;2022-12-29T14:48:37;10.50;99.90
3408;DHT22;1717;50.240;8.406;2022-12-29T14:51:20;10.50;99.90
3408;DHT22;1717;50.240;8.406;2022-12-29T14:53:49;10.50;99.90
3408;DHT22;1717;50.240;8.406;2022-12-29T14:56:17;10.50;99.90
3408;DHT22;1717;50.240;8.406;2022-12-29T14:58:50;10.50;99.90
3408;DHT22;1717;50.240;8.406;2022-12-29T15:01:22;10.50;99.90
3408;DHT22;1717;50.240;8.406;2022-12-29T15:03:53;10.40;99.90
3408;DHT22;1717;50.240;8.406;2022-12-29T15:06:22;10.40;99.90
3408;DHT22;1717;50.240;8.406;2022-12-29T15:08:53;10.40;99.90
3408;DHT22;1717;50.240;8.406;2022-12-29T15:11:22;10.40;99.90
3408;DHT22;1717;50.240;8.406;2022-12-29T15:13:50;10.40;99.90
3408;DHT22;1717;50.240;8.406;2022-12-29T15:16:22;10.30;99.90
3408;DHT22;1717;50.240;8.406;2022-12-29T15:18:49;10.30;99.90
3408;DHT22;1717;50.240;8.406;2022-12-29T15:21:17;10.30;99.90
3408;DHT22;1717;50.240;8.406;2022-12-29T15:23:46;10.20;99.90
3408;DHT22;1717;50.240;8.406;2022-12-29T15:26:13;10.20;99.90
3408;DHT22;1717;50.240;8.406;2022-12-29T15:28:47;10.30;99.90
3408;DHT22;1717;50.240;8.406;2022-12-29T15:31:17;10.20;99.90
3408;DHT22;1717;50.240;8.406;2022-12-29T15:33:46;10.20;99.90
3408;DHT22;1717;50.240;8.406;2022-12-29T15:36:17;10.20;99.90
3408;DHT22;1717;50.240;8.406;2022-12-29T15:38:46;10.10;99.90
3408;DHT22;1717;50.240;8.406;2022-12-29T15:41:23;10.10;99.90
3408;DHT22;1717;50.240;8.406;2022-12-29T15:44:08;10.00;99.90
3408;DHT22;1717;50.240;8.406;2022-12-29T15:46:38;10.00;99.90
3408;DHT22;1717;50.240;8.406;2022-12-29T15:49:07;10.00;99.90
3408;DHT22;1717;50.240;8.406;2022-12-29T15:51:37;10.00;99.90
3408;DHT22;1717;50.240;8.406;2022-12-29T15:54:04;10.00;99.90
3408;DHT22;1717;50.240;8.406;2022-12-29T15:56:32;10.00;99.90
3408;DHT22;1717;50.240;8.406;2022-12-29T15:59:00;9.90;99.90
3408;DHT22;1717;50.240;8.406;2022-12-29T16:01:30;9.90;99.90
3408;DHT22;1717;50.240;8.406;2022-12-29T16:04:02;9.90;99.90
3408;DHT22;1717;50.240;8.406;2022-12-29T16:06:32;9.90;99.90
3408;DHT22;1717;50.240;8.406;2022-12-29T16:09:01;9.80;99.90
3408;DHT22;1717;50.240;8.406;2022-12-29T16:11:32;9.80;99.90
3408;DHT22;1717;50.240;8.406;2022-12-29T16:14:01;9.80;99.90
3408;DHT22;1717;50.240;8.406;2022-12-29T16:16:31;9.70;99.90
3408;DHT22;1717;50.240;8.406;2022-12-29T16:19:01;9.70;99.90
3408;DHT22;1717;50.240;8.406;2022-12-29T16:21:33;9.70;99.90
3408;DHT22;1717;50.240;8.406;2022-12-29T16:24:04;9.60;99.90
3408;DHT22;1717;50.240;8.406;2022-12-29T16:26:32;9.60;99.90
3408;DHT22;1717;50.240;8.406;2022-12-29T16:29:00;9.60;99.90
3408;DHT22;1717;50.240;8.406;2022-12-29T16:31:33;9.60;99.90
3408;DHT22;1717;50.240;8.406;2022-12-29T16:34:13;9.60;99.90
3408;DHT22;1717;50.240;8.406;2022-12-29T16:36:53;9.50;99.90
3408;DHT22;1717;50.240;8.406;2022-12-29T16:39:28;9.50;99.90
3408;DHT22;1717;50.240;8.406;2022-12-29T16:41:57;9.50;99.90
3408;DHT22;1717;50.240;8.406;2022-12-29T16:44:25;9.50;99.90
3408;DHT22;1717;50.240;8.406;2022-12-29T16:47:02;9.50;99.90
3408;DHT22;1717;50.240;8.406;2022-12-29T16:49:33;9.50;99.90
3408;DHT22;1717;50.240;8.406;2022-12-29T16:52:01;9.50;99.90